Terminal Aerodrome Forecast
Issued by NWS Buffalo, NY

Home | Current Version | Previous Version | Text Only | Print | Product List | Glossary On
Versions: 1 2 3 4 5 6 7 8 9 10 11 12 13 14 15 16 17 18 19 20 21 22 23 24 25 26
827
FTUS41 KBUF 301231 AAB
TAFBUF
TAF AMD
KBUF 301231Z 3013/0112 07016G24KT 3SM TSRA OVC035CB
     FM301330 08014G20KT P6SM BKN040
     FM302300 VRB05KT P6SM VCSH BKN040
     FM010300 17005KT P6SM BKN060 WS020/21040KT=

USA.gov is the U.S. government's official web portal to all federal, state and local government web resources and services.